createdAt,value
2023-01-30T00:00:06.161Z,56.11
2023-01-30T00:05:29.258Z,55.87
2023-01-30T00:10:32.478Z,55.79
2023-01-30T00:15:36.702Z,55.79
2023-01-30T00:20:40.106Z,55.68
2023-01-30T00:25:46.217Z,55.72
2023-01-30T00:30:51.289Z,55.64
2023-01-30T00:35:56.475Z,55.71
2023-01-30T00:40:59.814Z,55.80
2023-01-30T00:46:28.152Z,55.88
2023-01-30T00:51:31.311Z,56.06
2023-01-30T00:56:35.038Z,56.09
2023-01-30T01:01:38.581Z,56.14
2023-01-30T01:06:41.848Z,56.15
2023-01-30T01:11:45.171Z,56.20
2023-01-30T01:16:48.554Z,56.25
2023-01-30T01:21:52.069Z,56.29
2023-01-30T01:26:55.514Z,56.51
2023-01-30T01:31:58.841Z,56.54
2023-01-30T01:37:02.447Z,56.57
2023-01-30T01:42:16.658Z,56.66
2023-01-30T01:47:20.947Z,56.54
2023-01-30T01:52:24.355Z,56.53
2023-01-30T01:57:34.872Z,56.49
2023-01-30T02:02:59.786Z,56.50
2023-01-30T02:08:07.915Z,56.25
2023-01-30T02:13:11.287Z,56.41
2023-01-30T02:18:15.624Z,56.56
2023-01-30T02:23:43.941Z,56.81
2023-01-30T02:29:07.710Z,56.90
2023-01-30T02:34:35.222Z,57.01
2023-01-30T02:40:01.333Z,57.16
2023-01-30T02:45:30.328Z,57.28
2023-01-30T02:50:36.167Z,57.38
2023-01-30T02:55:41.178Z,57.46
2023-01-30T03:00:47.507Z,57.59
2023-01-30T03:06:05.459Z,57.56
2023-01-30T03:11:10.836Z,57.53
2023-01-30T03:16:41.207Z,57.58
2023-01-30T03:21:46.067Z,57.67
2023-01-30T03:26:55.288Z,57.59
2023-01-30T03:31:58.725Z,57.60
2023-01-30T03:37:03.283Z,57.54
2023-01-30T03:42:10.497Z,57.73
2023-01-30T03:47:15.224Z,57.51
2023-01-30T03:52:18.826Z,57.41
2023-01-30T03:57:22.167Z,56.95
2023-01-30T04:02:26.525Z,56.97
2023-01-30T04:07:30.534Z,56.97
2023-01-30T04:12:34.148Z,56.69
2023-01-30T04:17:38.002Z,56.91
2023-01-30T04:23:01.738Z,56.98
2023-01-30T04:28:07.154Z,57.06
2023-01-30T04:33:13.450Z,57.02
2023-01-30T04:38:16.705Z,56.60
2023-01-30T04:43:22.216Z,56.35
2023-01-30T04:48:28.547Z,56.39
2023-01-30T04:53:33.188Z,55.98
2023-01-30T04:58:36.692Z,55.63
2023-01-30T05:03:39.970Z,55.52
2023-01-30T05:08:44.786Z,55.58
2023-01-30T05:13:50.219Z,55.39
2023-01-30T05:18:53.517Z,55.35
2023-01-30T05:23:57.693Z,55.33
2023-01-30T05:29:01.177Z,54.40
2023-01-30T05:34:05.229Z,54.06
2023-01-30T05:39:08.882Z,54.12
2023-01-30T05:44:12.697Z,53.90
2023-01-30T05:49:22.750Z,53.70
2023-01-30T05:54:26.128Z,53.48
2023-01-30T05:59:29.411Z,53.11
2023-01-30T06:04:32.686Z,52.84
2023-01-30T06:09:35.980Z,52.72
2023-01-30T06:14:39.498Z,52.31
2023-01-30T06:19:42.742Z,52.48
2023-01-30T06:24:46.186Z,52.39
2023-01-30T06:29:49.523Z,52.46
2023-01-30T06:34:52.813Z,52.47
2023-01-30T06:39:56.185Z,52.65
2023-01-30T06:44:59.478Z,52.85
2023-01-30T06:50:03.016Z,52.99
2023-01-30T06:55:06.978Z,52.98
2023-01-30T07:00:16.407Z,52.98
2023-01-30T07:05:20.042Z,53.30
2023-01-30T07:10:24.048Z,53.17
2023-01-30T07:15:27.725Z,52.98
2023-01-30T07:20:31.609Z,52.70
2023-01-30T07:25:35.005Z,52.55
2023-01-30T07:30:38.445Z,52.13
2023-01-30T07:35:41.922Z,52.13
2023-01-30T07:40:45.365Z,51.88
2023-01-30T07:45:49.422Z,51.58
2023-01-30T07:50:56.976Z,51.40
2023-01-30T07:56:01.179Z,51.66
2023-01-30T08:01:05.087Z,51.47
2023-01-30T08:06:08.781Z,51.09
2023-01-30T08:11:12.291Z,50.68
2023-01-30T08:16:15.793Z,50.69
2023-01-30T08:21:20.100Z,50.68
2023-01-30T08:26:24.109Z,50.69
2023-01-30T08:31:28.355Z,50.59
2023-01-30T08:36:33.009Z,50.65
2023-01-30T08:41:36.901Z,50.31
2023-01-30T08:46:41.015Z,50.21
2023-01-30T08:51:45.258Z,50.16
2023-01-30T08:56:52.661Z,50.02
2023-01-30T09:01:57.411Z,49.69
2023-01-30T09:07:00.729Z,49.70
2023-01-30T09:12:04.466Z,49.90
2023-01-30T09:17:07.810Z,50.25
2023-01-30T09:22:11.159Z,50.77
2023-01-30T09:27:15.491Z,51.39
2023-01-30T09:32:19.214Z,51.52
2023-01-30T09:37:23.450Z,51.75
2023-01-30T09:42:59.250Z,51.70
2023-01-30T09:48:30.466Z,51.83
2023-01-30T09:53:43.291Z,52.35
2023-01-30T09:58:53.791Z,52.80
2023-01-30T10:04:19.523Z,53.01
2023-01-30T10:09:41.677Z,53.28
2023-01-30T10:15:05.707Z,53.85
2023-01-30T10:20:33.552Z,54.46
2023-01-30T10:25:39.628Z,54.92
2023-01-30T10:30:46.572Z,55.04
2023-01-30T10:36:08.654Z,55.19
2023-01-30T10:41:20.070Z,55.36
2023-01-30T10:46:48.929Z,55.86
2023-01-30T10:52:13.031Z,56.02
2023-01-30T10:57:17.819Z,56.37
2023-01-30T11:02:31.955Z,56.69
2023-01-30T11:07:36.445Z,57.09
2023-01-30T11:12:43.928Z,58.19
2023-01-30T11:17:50.091Z,59.15
2023-01-30T11:23:27.630Z,60.08
2023-01-30T11:28:40.520Z,61.29
2023-01-30T11:34:02.540Z,62.71
2023-01-30T11:39:16.520Z,63.56
2023-01-30T11:44:29.473Z,63.63
2023-01-30T11:49:47.297Z,64.17
2023-01-30T11:55:14.082Z,64.68
2023-01-30T12:00:23.051Z,64.82
2023-01-30T12:05:37.978Z,65.07
2023-01-30T12:10:46.007Z,65.43
2023-01-30T12:16:07.859Z,65.41
2023-01-30T12:21:28.470Z,65.51
2023-01-30T12:26:54.034Z,65.42
2023-01-30T12:32:10.471Z,65.41
2023-01-30T12:37:19.916Z,65.28
2023-01-30T12:42:57.219Z,65.33
2023-01-30T12:48:24.397Z,65.66
2023-01-30T12:53:55.735Z,65.48
2023-01-30T12:59:19.490Z,65.38
2023-01-30T13:05:07.482Z,65.56
2023-01-30T13:10:23.749Z,65.77
2023-01-30T13:15:33.310Z,66.15
2023-01-30T13:21:00.687Z,66.75
2023-01-30T13:26:16.548Z,66.86
2023-01-30T13:31:23.993Z,67.11
2023-01-30T13:36:53.077Z,67.11
2023-01-30T13:41:59.815Z,74.98
2023-01-30T13:47:23.174Z,67.97
2023-01-30T13:52:26.880Z,67.31
2023-01-30T13:57:42.125Z,67.14
2023-01-30T14:03:05.272Z,67.18
2023-01-30T14:08:22.394Z,67.08
2023-01-30T14:13:30.648Z,67.54
2023-01-30T14:18:40.749Z,67.55
2023-01-30T14:23:59.124Z,68.01
2023-01-30T14:29:03.861Z,67.84
2023-01-30T14:34:40.581Z,68.04
2023-01-30T14:39:52.218Z,67.44
2023-01-30T14:45:00.952Z,67.53
2023-01-30T14:50:19.150Z,67.17
2023-01-30T14:55:30.296Z,67.03
2023-01-30T15:00:38.079Z,66.67
2023-01-30T15:05:47.316Z,66.13
2023-01-30T15:11:13.341Z,65.68
2023-01-30T15:16:38.889Z,65.08
2023-01-30T15:22:14.455Z,64.88
2023-01-30T15:27:32.697Z,64.45
2023-01-30T15:32:36.811Z,64.41
2023-01-30T15:37:48.433Z,63.92
2023-01-30T15:42:58.864Z,63.87
2023-01-30T15:48:34.850Z,63.67
2023-01-30T15:53:45.149Z,64.09
2023-01-30T15:58:50.207Z,64.41
2023-01-30T16:03:55.598Z,64.30
2023-01-30T16:09:06.337Z,64.22
2023-01-30T16:14:18.841Z,64.32
2023-01-30T16:19:29.750Z,64.59
2023-01-30T16:24:37.016Z,64.55
2023-01-30T16:29:51.452Z,64.98
2023-01-30T16:35:17.722Z,64.92
2023-01-30T16:40:25.905Z,65.21
2023-01-30T16:45:38.102Z,65.25
2023-01-30T16:50:43.808Z,65.16
2023-01-30T16:56:10.212Z,64.97
2023-01-30T17:01:14.174Z,65.13
2023-01-30T17:06:40.107Z,65.18
2023-01-30T17:11:44.293Z,65.49
2023-01-30T17:17:08.495Z,65.08
2023-01-30T17:22:24.784Z,64.91
2023-01-30T17:27:30.576Z,64.92
2023-01-30T17:32:35.449Z,64.68
2023-01-30T17:37:40.317Z,64.50
2023-01-30T17:42:45.346Z,64.18
2023-01-30T17:47:50.882Z,64.07
2023-01-30T17:52:55.658Z,63.77
2023-01-30T17:58:01.645Z,63.64
2023-01-30T18:03:05.941Z,63.42
2023-01-30T18:08:09.875Z,63.19
2023-01-30T18:13:14.172Z,63.04
2023-01-30T18:18:18.667Z,63.15
2023-01-30T18:23:22.039Z,63.16
2023-01-30T18:28:26.425Z,63.17
2023-01-30T18:33:33.129Z,63.13
2023-01-30T18:38:36.695Z,63.06
2023-01-30T18:43:40.241Z,63.47
2023-01-30T18:48:45.127Z,63.86
2023-01-30T18:53:51.375Z,64.22
2023-01-30T18:58:56.546Z,64.38
2023-01-30T19:04:02.093Z,64.22
2023-01-30T19:09:17.403Z,64.27
2023-01-30T19:14:20.860Z,64.65
2023-01-30T19:19:25.011Z,64.54
2023-01-30T19:24:28.368Z,64.66
2023-01-30T19:29:31.691Z,64.60
2023-01-30T19:34:35.128Z,64.61
2023-01-30T19:39:38.492Z,64.33
2023-01-30T19:44:42.954Z,64.31
2023-01-30T19:49:46.244Z,64.01
2023-01-30T19:54:49.738Z,64.27
2023-01-30T19:59:53.047Z,63.77
2023-01-30T20:04:57.434Z,63.96
2023-01-30T20:10:00.930Z,64.05
2023-01-30T20:15:06.195Z,63.52
2023-01-30T20:20:10.666Z,63.69
2023-01-30T20:26:26.630Z,63.70
2023-01-30T20:31:31.057Z,63.17
2023-01-30T20:36:34.720Z,63.47
2023-01-30T20:41:38.808Z,63.67
2023-01-30T20:46:45.012Z,64.13
2023-01-30T20:51:51.278Z,64.37
2023-01-30T20:56:54.664Z,64.19
2023-01-30T21:01:58.025Z,65.12
2023-01-30T21:07:01.696Z,66.08
2023-01-30T21:12:05.608Z,66.74
2023-01-30T21:17:09.118Z,66.90
2023-01-30T21:22:12.402Z,67.44
2023-01-30T21:27:15.631Z,67.58
2023-01-30T21:32:19.399Z,68.24
2023-01-30T21:37:41.213Z,68.07
2023-01-30T21:43:03.555Z,68.18
2023-01-30T21:48:06.876Z,68.56
2023-01-30T21:53:10.120Z,68.95
2023-01-30T21:58:13.529Z,68.49
2023-01-30T22:03:16.839Z,68.82
2023-01-30T22:08:20.001Z,68.49
2023-01-30T22:13:23.306Z,68.90
2023-01-30T22:18:26.506Z,68.81
2023-01-30T22:23:38.543Z,69.13
2023-01-30T22:28:42.032Z,69.04
2023-01-30T22:33:51.517Z,69.10
2023-01-30T22:38:55.445Z,68.97
2023-01-30T22:43:59.980Z,68.57
2023-01-30T22:49:05.584Z,68.73
2023-01-30T22:54:16.120Z,68.48
2023-01-30T22:59:19.776Z,68.69
2023-01-30T23:04:23.882Z,68.87
2023-01-30T23:09:27.287Z,68.98
2023-01-30T23:14:30.563Z,68.97
2023-01-30T23:19:33.720Z,68.59
2023-01-30T23:24:37.105Z,68.45
2023-01-30T23:29:40.313Z,68.46
2023-01-30T23:34:43.542Z,68.76
2023-01-30T23:39:46.870Z,68.81
2023-01-30T23:44:53.221Z,68.66
2023-01-30T23:49:56.579Z,68.51
2023-01-30T23:55:00.176Z,68.47
